Brook Danos — WDC8122 — position and weather

sailwx.info

Track history (hours):
 
Tides and Currents Weather Stations Pressure Air Temp Water Temp Dewpoint Dewpoint Depression Visibility Wind Speed Wind Dir Waves Ship Positions

Brook Danos

Owner: Lafourche Tugs Inc., Raceland, LA. More information available from US FCC via Universal Licensing System and Coast Guard Vessel Documentation Center.

Last reported at 2018-Jun-19 18:30 UTC. Time now 2018-Jun-19 18:29 UTC.
Position N 29°46' W 093°53'.

Length 27 m; draft 2.6 m.

Type: Other ship. MMSI: 367081970.

Date/timePositionNaut miles runAvg speedWind from/ knotsBaromVisibWave heightAir tempDewpointWater temp
2018-Jun-19 18:30N 29°46' W 093°53'0 0.0
2018-Jun-19 18:00N 29°46' W 093°53'0 0.0
2018-Jun-19 17:30N 29°46' W 093°53'0 0.0
2018-Jun-19 17:00N 29°46' W 093°53'0 0.0
2018-Jun-19 16:30N 29°46' W 093°53'0 0.0
2018-Jun-19 16:00N 29°46' W 093°53'0 0.0
2018-Jun-19 15:30N 29°46' W 093°53'3 5.7
2018-Jun-19 15:00N 29°43' W 093°52'510.2
2018-Jun-19 14:30N 29°39' W 093°49'5 9.8
2018-Jun-19 14:00N 29°41' W 093°44'2 4.2
2018-Jun-19 13:30N 29°40' W 093°47'3 5.7
2018-Jun-19 13:00N 29°40' W 093°50'5 9.1
2018-Jun-19 12:30N 29°44' W 093°52'2 4.7
2018-Jun-19 12:00N 29°46' W 093°53'0 0.0
2018-Jun-19 11:30N 29°46' W 093°53'0 0.0
2018-Jun-19 11:00N 29°46' W 093°53'0 0.0
2018-Jun-19 10:30N 29°46' W 093°53'0 0.0
2018-Jun-19 10:00N 29°46' W 093°53'0 0.0
2018-Jun-19 09:30N 29°46' W 093°53'0 0.0
2018-Jun-19 09:00N 29°46' W 093°53'0 0.0
2018-Jun-19 08:30N 29°46' W 093°53'0 0.0
2018-Jun-19 08:00N 29°46' W 093°53'0 0.0
2018-Jun-19 07:30N 29°46' W 093°53'0 0.0
2018-Jun-19 07:00N 29°46' W 093°53'0 0.0
2018-Jun-19 06:30N 29°46' W 093°53'0 0.0
2018-Jun-19 06:00N 29°46' W 093°53'0 0.0
2018-Jun-19 05:30N 29°46' W 093°53'0 0.0
2018-Jun-19 05:00N 29°46' W 093°53'0 0.0
2018-Jun-19 04:30N 29°46' W 093°53'0 0.0
2018-Jun-19 04:00N 29°46' W 093°53'0 0.0
2018-Jun-19 03:30N 29°46' W 093°53'0 0.0
2018-Jun-19 03:00N 29°46' W 093°53'0 0.0
2018-Jun-19 02:30N 29°46' W 093°53'0 0.0
2018-Jun-19 02:00N 29°46' W 093°53'0 0.0
2018-Jun-19 01:29N 29°46' W 093°53'0 0.0
2018-Jun-19 01:00N 29°46' W 093°53'0 0.0
2018-Jun-19 00:30N 29°46' W 093°53'0 0.0
2018-Jun-19 00:00N 29°46' W 093°53'0 0.0
2018-Jun-18 23:30N 29°46' W 093°53'0 0.0
2018-Jun-18 23:01N 29°46' W 093°53'0 0.0
2018-Jun-18 22:30N 29°46' W 093°53'0 0.0
2018-Jun-18 22:00N 29°46' W 093°53'0 0.0
2018-Jun-18 21:30N 29°46' W 093°53'0 0.0
2018-Jun-18 21:00N 29°46' W 093°53'0 0.0
2018-Jun-18 20:30N 29°46' W 093°53'0 0.0
2018-Jun-18 20:00N 29°46' W 093°53'0 0.0
2018-Jun-18 19:30N 29°46' W 093°53'0 0.0
2018-Jun-18 19:01N 29°46' W 093°53'0 0.0
2018-Jun-18 18:30N 29°46' W 093°53'0 0.0
2018-Jun-18 18:00N 29°46' W 093°53'0 0.0
2018-Jun-18 17:30N 29°46' W 093°53'0 0.0
2018-Jun-18 17:00N 29°46' W 093°53'0 0.0
2018-Jun-18 16:30N 29°46' W 093°53'0 0.0
2018-Jun-18 16:01N 29°46' W 093°53'0 0.0
2018-Jun-18 15:30N 29°46' W 093°53'0 0.0
2018-Jun-18 15:00N 29°46' W 093°53'0 0.0
2018-Jun-18 14:30N 29°46' W 093°53'0 0.0
2018-Jun-18 14:00N 29°46' W 093°53'0 0.0
2018-Jun-18 13:30N 29°46' W 093°53'0 0.0
2018-Jun-18 13:00N 29°46' W 093°53'0 0.0
2018-Jun-18 12:30N 29°46' W 093°53'0 0.0
2018-Jun-18 12:00N 29°46' W 093°53'0 0.0
2018-Jun-18 11:30N 29°46' W 093°53'0 0.0
2018-Jun-18 11:00N 29°46' W 093°53'0 0.0
2018-Jun-18 10:30N 29°46' W 093°53'0 0.0
2018-Jun-18 10:01N 29°46' W 093°53'0 0.0
2018-Jun-18 09:30N 29°46' W 093°53'0 0.0
2018-Jun-18 09:00N 29°46' W 093°53'0 0.0
2018-Jun-18 08:31N 29°46' W 093°53'0 0.0
2018-Jun-18 08:00N 29°46' W 093°53'0 0.0
2018-Jun-18 07:29N 29°46' W 093°53'0 0.0
2018-Jun-18 07:00N 29°46' W 093°53'0 0.0
2018-Jun-18 06:30N 29°46' W 093°53'0 0.0
2018-Jun-18 06:01N 29°46' W 093°53'0 0.0
2018-Jun-18 05:30N 29°46' W 093°53'0 0.0
2018-Jun-18 05:00N 29°46' W 093°53'0 0.0
2018-Jun-18 04:30N 29°46' W 093°53'0 0.0
2018-Jun-18 04:00N 29°46' W 093°53'0 0.0
2018-Jun-18 03:30N 29°46' W 093°53'0 0.0
2018-Jun-18 03:00N 29°46' W 093°53'0 0.0
2018-Jun-18 02:30N 29°46' W 093°53'0 0.0
2018-Jun-18 02:00N 29°46' W 093°53'0 0.0
2018-Jun-18 01:30N 29°46' W 093°53'0 0.0
2018-Jun-18 01:00N 29°46' W 093°53'0 0.0
2018-Jun-18 00:30N 29°46' W 093°53'0 0.0
2018-Jun-18 00:00N 29°46' W 093°53'0 0.0
2018-Jun-17 23:30N 29°46' W 093°53'0 0.0
2018-Jun-17 23:00N 29°46' W 093°53'0 0.0
2018-Jun-17 22:30N 29°46' W 093°53'0 0.0
2018-Jun-17 22:00N 29°46' W 093°53'0 0.0
2018-Jun-17 21:30N 29°46' W 093°53'0 0.0
2018-Jun-17 21:00N 29°46' W 093°53'0 0.0
2018-Jun-17 20:29N 29°46' W 093°53'0 0.0
2018-Jun-17 20:00N 29°46' W 093°53'0 0.0
2018-Jun-17 19:30N 29°46' W 093°53'0 0.0
2018-Jun-17 19:00N 29°46' W 093°53'0 0.0
2018-Jun-17 18:30N 29°46' W 093°53'0 0.0
2018-Jun-17 18:00N 29°46' W 093°53'0 0.0
2018-Jun-17 17:30N 29°46' W 093°53'0 0.0
2018-Jun-17 17:00N 29°46' W 093°53'0 0.0
2018-Jun-17 16:30N 29°46' W 093°53'0 0.0
2018-Jun-17 16:00N 29°46' W 093°53'0 0.0
2018-Jun-17 15:30N 29°46' W 093°53'0 0.0
2018-Jun-17 15:00N 29°46' W 093°53'0 0.0
2018-Jun-17 14:30N 29°46' W 093°53'0 0.0
2018-Jun-17 14:00N 29°46' W 093°53'0 0.0
2018-Jun-17 13:30N 29°46' W 093°53'0 0.0
2018-Jun-17 13:00N 29°46' W 093°53'0 0.0
2018-Jun-17 12:30N 29°46' W 093°53'0 0.0
2018-Jun-17 12:00N 29°46' W 093°53'0 0.0
2018-Jun-17 11:30N 29°46' W 093°53'0 0.0
2018-Jun-17 10:58N 29°46' W 093°53'0 0.0
2018-Jun-17 10:30N 29°46' W 093°53'0 0.0
2018-Jun-17 10:00N 29°46' W 093°53'0 0.0
2018-Jun-17 09:30N 29°46' W 093°53'0 0.0
2018-Jun-17 09:00N 29°46' W 093°53'0 0.0
2018-Jun-17 08:30N 29°46' W 093°53'0 0.0
2018-Jun-17 08:00N 29°46' W 093°53'0 0.0
2018-Jun-17 07:30N 29°46' W 093°53'0 0.0
2018-Jun-17 07:00N 29°46' W 093°53'0 0.0
2018-Jun-17 06:30N 29°46' W 093°53'0 0.0
2018-Jun-17 06:00N 29°46' W 093°53'0 0.0
2018-Jun-17 05:30N 29°46' W 093°53'0 0.0
2018-Jun-17 05:00N 29°46' W 093°53'0 0.0
2018-Jun-17 04:29N 29°46' W 093°53'0 0.0
2018-Jun-17 04:00N 29°46' W 093°53'0 0.0
2018-Jun-17 03:30N 29°46' W 093°53'0 0.0
2018-Jun-17 03:00N 29°46' W 093°53'0 0.0
2018-Jun-17 02:30N 29°46' W 093°53'0 0.0
2018-Jun-17 02:00N 29°46' W 093°53'0 0.0
2018-Jun-17 01:30N 29°46' W 093°53'0 0.0
2018-Jun-17 01:00N 29°46' W 093°53'0 0.0
2018-Jun-17 00:30N 29°46' W 093°53'0 0.0
2018-Jun-17 00:00N 29°46' W 093°53'3 5.8
2018-Jun-16 23:30N 29°43' W 093°52'5 9.8
2018-Jun-16 23:00N 29°39' W 093°50'4 8.9
2018-Jun-16 22:30N 29°41' W 093°45'1 2.1
2018-Jun-16 22:00N 29°41' W 093°44'0 0.0
2018-Jun-16 21:30N 29°41' W 093°44'0 0.0
2018-Jun-16 20:59N 29°41' W 093°44'0 0.0
2018-Jun-16 20:30N 29°41' W 093°44'0 0.0
2018-Jun-16 20:00N 29°41' W 093°44'0 0.0
2018-Jun-16 19:30N 29°41' W 093°44'0 0.0
2018-Jun-16 19:00N 29°41' W 093°44'0 0.0
2018-Jun-16 18:30N 29°41' W 093°44'0 0.0
2018-Jun-16 18:00N 29°41' W 093°44'0 0.0
2018-Jun-16 17:30N 29°41' W 093°44'4 8.3
2018-Jun-16 17:00N 29°41' W 093°39'5 9.3
2018-Jun-16 16:30N 29°42' W 093°34'2 0.6
2018-Jun-16 12:15N 29°41' W 093°31'2 8.9
2018-Jun-16 12:00N 29°41' W 093°34'4 8.9
2018-Jun-16 11:30N 29°41' W 093°39'4 8.8
2018-Jun-16 11:00N 29°41' W 093°44'4 8.7
2018-Jun-16 10:30N 29°39' W 093°48'3 6.1
2018-Jun-16 10:00N 29°41' W 093°50'4 7.9
2018-Jun-16 09:30N 29°45' W 093°53'1 2.2
2018-Jun-16 09:00N 29°46' W 093°53'0 0.0
2018-Jun-16 08:30N 29°46' W 093°53'0 0.0
2018-Jun-16 08:00N 29°46' W 093°53'0 0.0
2018-Jun-16 07:30N 29°46' W 093°53'0 0.0
2018-Jun-16 07:00N 29°46' W 093°53'0 0.0
2018-Jun-16 06:30N 29°46' W 093°53'0 0.0
2018-Jun-16 06:00N 29°46' W 093°53'0 0.0
2018-Jun-16 05:30N 29°46' W 093°53'0 0.0
2018-Jun-16 05:00N 29°46' W 093°53'0 0.0
2018-Jun-16 04:31N 29°46' W 093°53'0 0.0
2018-Jun-16 04:00N 29°46' W 093°53'0 0.0
2018-Jun-16 03:30N 29°46' W 093°53'0 0.0
2018-Jun-16 03:00N 29°46' W 093°53'0 0.0
2018-Jun-16 02:31N 29°46' W 093°53'0 0.0
2018-Jun-16 02:00N 29°46' W 093°53'0 0.0
2018-Jun-16 01:30N 29°46' W 093°53'0 0.0
2018-Jun-16 01:00N 29°46' W 093°53'0 0.0
2018-Jun-16 00:30N 29°46' W 093°53'0 0.0
2018-Jun-15 23:59N 29°46' W 093°53'0 0.0
2018-Jun-15 23:30N 29°46' W 093°53'0 0.0
2018-Jun-15 23:00N 29°46' W 093°53'0 0.2
2018-Jun-15 22:30N 29°46' W 093°53'4 8.9
2018-Jun-15 22:00N 29°42' W 093°51'4 7.5
2018-Jun-15 21:30N 29°39' W 093°48'4 8.7
2018-Jun-15 21:00N 29°41' W 093°44'3 6.5
2018-Jun-15 20:30N 29°39' W 093°41'1 1.0
2018-Jun-15 19:50N 29°39' W 093°42'3 8.7
2018-Jun-15 19:30N 29°40' W 093°45'1 2.8
2018-Jun-15 19:00N 29°41' W 093°44'0 0.7
2018-Jun-15 18:30N 29°41' W 093°44'4 8.9
2018-Jun-15 18:00N 29°39' W 093°49'4 7.2
2018-Jun-15 17:30N 29°42' W 093°51'4 8.2
2018-Jun-15 17:00N 29°45' W 093°53'1 1.3
2018-Jun-15 16:30N 29°46' W 093°53'0 0.0
2018-Jun-15 16:00N 29°46' W 093°53'0 0.2
2018-Jun-15 15:30N 29°46' W 093°53'4 8.4
2018-Jun-15 15:00N 29°42' W 093°51'5 9.6
2018-Jun-15 14:30N 29°37' W 093°50'5 9.1
2018-Jun-15 14:00N 29°33' W 093°51'8 9.2
2018-Jun-15 13:11N 29°26' W 093°54'1 0.1
2018-Jun-14 14:51N 29°27' W 093°53'4 9.1
2018-Jun-14 14:28N 29°30' W 093°52'4 9.2
2018-Jun-14 14:00N 29°34' W 093°50'5 9.1
2018-Jun-14 13:30N 29°39' W 093°50'4 7.7
2018-Jun-14 13:00N 29°42' W 093°51'4 7.2
2018-Jun-14 12:30N 29°45' W 093°53'1 1.1
2018-Jun-14 12:01N 29°46' W 093°53'0 0.0
2018-Jun-14 11:30N 29°46' W 093°53'0 0.0
2018-Jun-14 11:00N 29°46' W 093°53'0 0.0
2018-Jun-14 10:30N 29°46' W 093°53'3 6.2
2018-Jun-14 10:00N 29°43' W 093°52'510.6
2018-Jun-14 09:30N 29°38' W 093°50'4 8.9
2018-Jun-14 09:00N 29°34' W 093°51'7 0.3
2018-Jun-13 06:32N 29°27' W 093°53'1 8.0
2018-Jun-13 06:27N 29°27' W 093°53'4 8.1
2018-Jun-13 06:00N 29°31' W 093°52'4 8.1
2018-Jun-13 05:30N 29°35' W 093°51'4 8.9
2018-Jun-13 05:00N 29°39' W 093°50'5 9.7
2018-Jun-13 04:29N 29°44' W 093°52'3 5.0
2018-Jun-13 03:59N 29°46' W 093°53'0 0.0
2018-Jun-13 03:30N 29°46' W 093°53'0 0.0
2018-Jun-13 03:00N 29°46' W 093°53'2 4.2
2018-Jun-13 02:30N 29°44' W 093°52'3 5.7
2018-Jun-13 02:00N 29°42' W 093°50'3 5.9
2018-Jun-13 01:30N 29°39' W 093°50'4 7.3
2018-Jun-13 01:00N 29°35' W 093°48'3 6.2
2018-Jun-13 00:30N 29°32' W 093°47'4 8.6
2018-Jun-12 23:59N 29°36' W 093°46'4 8.6
2018-Jun-12 23:30N 29°40' W 093°44'2 4.5
2018-Jun-12 23:00N 29°40' W 093°47'3 5.5
2018-Jun-12 22:30N 29°40' W 093°50'4 9.0
2018-Jun-12 22:00N 29°44' W 093°52'2 3.4
2018-Jun-12 21:30N 29°46' W 093°53'0 0.0
2018-Jun-12 21:00N 29°46' W 093°53'0 0.0
2018-Jun-12 20:30N 29°46' W 093°53'0 0.0
2018-Jun-12 20:00N 29°46' W 093°53'0 0.0
2018-Jun-12 19:30N 29°46' W 093°53'0 0.0
2018-Jun-12 19:00N 29°46' W 093°53'0 0.0
2018-Jun-12 18:30N 29°46' W 093°53'0 0.0
2018-Jun-12 18:00N 29°46' W 093°53'0 0.0
2018-Jun-12 17:30N 29°46' W 093°53'2 4.9
2018-Jun-12 17:00N 29°44' W 093°52'4 8.3
2018-Jun-12 16:30N 29°40' W 093°50'3 5.8
2018-Jun-12 16:00N 29°40' W 093°46'3 5.3
2018-Jun-12 15:30N 29°41' W 093°44'4 7.6
2018-Jun-12 15:00N 29°39' W 093°48'3 5.7
2018-Jun-12 14:30N 29°41' W 093°50'4 8.6
2018-Jun-12 14:00N 29°45' W 093°53'1 2.4
2018-Jun-12 13:30N 29°46' W 093°53'0 0.0
2018-Jun-12 13:00N 29°46' W 093°53'2 3.1
2018-Jun-12 12:30N 29°44' W 093°53'5 9.9
2018-Jun-12 12:00N 29°40' W 093°50'3 6.3
2018-Jun-12 11:30N 29°40' W 093°46'3 5.0
2018-Jun-12 11:00N 29°41' W 093°44'0 0.0
2018-Jun-12 10:30N 29°41' W 093°44'0 0.0
2018-Jun-12 10:00N 29°41' W 093°44'0 0.0
2018-Jun-12 09:30N 29°41' W 093°44'0 0.0
2018-Jun-12 09:01N 29°41' W 093°44'0 0.0
2018-Jun-12 08:30N 29°41' W 093°44'0 0.0
2018-Jun-12 08:00N 29°41' W 093°44'0 0.0
2018-Jun-12 07:30N 29°41' W 093°44'0 0.0
2018-Jun-12 07:00N 29°41' W 093°44'0 0.0
2018-Jun-12 06:30N 29°41' W 093°44'0 0.0
2018-Jun-12 06:00N 29°41' W 093°44'0 0.0
2018-Jun-12 05:30N 29°41' W 093°44'0 0.0
2018-Jun-12 05:00N 29°41' W 093°44'0 0.0
2018-Jun-12 04:30N 29°41' W 093°44'0 0.0
2018-Jun-12 04:00N 29°41' W 093°44'0 0.0
2018-Jun-12 03:30N 29°41' W 093°44'0 0.0
2018-Jun-12 03:00N 29°41' W 093°44'0 0.0
2018-Jun-12 02:30N 29°41' W 093°44'0 0.0
2018-Jun-12 02:00N 29°41' W 093°44'0 0.0
2018-Jun-12 01:30N 29°41' W 093°44'0 0.0
2018-Jun-12 00:58N 29°41' W 093°44'0 0.0
2018-Jun-12 00:29N 29°41' W 093°44'0 0.0
2018-Jun-11 23:59N 29°41' W 093°44'0 0.0
2018-Jun-11 23:29N 29°41' W 093°44'0 0.0
2018-Jun-11 22:58N 29°41' W 093°44'0 0.0
2018-Jun-11 22:29N 29°41' W 093°44'0 0.0
2018-Jun-11 22:00N 29°41' W 093°44'0 0.0
2018-Jun-11 21:28N 29°41' W 093°44'0 0.0
2018-Jun-11 21:00N 29°41' W 093°44'0 0.0
2018-Jun-11 20:29N 29°41' W 093°44'0 0.0
2018-Jun-11 19:59N 29°41' W 093°44'0 0.0
2018-Jun-11 19:27N 29°41' W 093°44'0 0.0
2018-Jun-11 18:59N 29°41' W 093°44'0 0.0
2018-Jun-11 18:30N 29°41' W 093°44'0 0.0
2018-Jun-11 17:59N 29°41' W 093°44'0 0.0
2018-Jun-11 17:30N 29°41' W 093°44'0 0.0
2018-Jun-11 17:00N 29°41' W 093°44'0 0.0
2018-Jun-11 16:29N 29°41' W 093°44'0 0.0
2018-Jun-11 15:57N 29°41' W 093°44'0 0.0
2018-Jun-11 15:30N 29°41' W 093°44'0 0.0
2018-Jun-11 15:00N 29°41' W 093°44'0 0.0
2018-Jun-11 14:30N 29°41' W 093°44'0 0.0
2018-Jun-11 13:57N 29°41' W 093°44'0 0.0
2018-Jun-11 13:30N 29°41' W 093°44'0 0.0
2018-Jun-11 13:00N 29°41' W 093°44'0 0.0
2018-Jun-11 12:30N 29°41' W 093°44'0 0.0
2018-Jun-11 12:00N 29°41' W 093°44'0 0.0
2018-Jun-11 11:29N 29°41' W 093°44'0 0.0
2018-Jun-11 11:00N 29°41' W 093°44'3 6.7
2018-Jun-11 10:30N 29°40' W 093°47'3 5.1
2018-Jun-11 10:00N 29°40' W 093°50'4 7.4
2018-Jun-11 09:30N 29°44' W 093°52'2 4.6
2018-Jun-11 09:00N 29°46' W 093°53'0 0.0
2018-Jun-11 08:30N 29°46' W 093°53'0 0.0
2018-Jun-11 08:00N 29°46' W 093°53'0 0.0
2018-Jun-11 07:29N 29°46' W 093°53'0 0.0
2018-Jun-11 07:00N 29°46' W 093°53'0 0.0
2018-Jun-11 06:30N 29°46' W 093°53'0 0.0
2018-Jun-11 06:00N 29°46' W 093°53'0 0.0
2018-Jun-11 05:30N 29°46' W 093°53'0 0.0
2018-Jun-11 05:00N 29°46' W 093°53'0 0.0
2018-Jun-11 04:31N 29°46' W 093°53'0 0.0
2018-Jun-11 04:00N 29°46' W 093°53'0 0.0
2018-Jun-11 03:31N 29°46' W 093°53'0 0.0
2018-Jun-11 03:00N 29°46' W 093°53'0 0.0
2018-Jun-11 02:30N 29°46' W 093°53'0 0.0
2018-Jun-11 02:01N 29°46' W 093°53'0 0.0
2018-Jun-11 01:30N 29°46' W 093°53'0 0.0
2018-Jun-11 01:01N 29°46' W 093°53'0 0.0
2018-Jun-11 00:30N 29°46' W 093°53'0 0.0
2018-Jun-11 00:01N 29°46' W 093°53'0 0.0
2018-Jun-10 23:30N 29°46' W 093°53'0 0.0
2018-Jun-10 23:00N 29°46' W 093°53'0 0.0
2018-Jun-10 22:30N 29°46' W 093°53'0 0.0
2018-Jun-10 22:01N 29°46' W 093°53'0 0.0
2018-Jun-10 21:30N 29°46' W 093°53'0 0.8
2018-Jun-10 21:00N 29°46' W 093°53'4 8.4
2018-Jun-10 20:31N 29°42' W 093°51'4 7.7
2018-Jun-10 20:01N 29°39' W 093°49'4 8.2
2018-Jun-10 19:30N 29°41' W 093°44'1 1.6
2018-Jun-10 19:01N 29°41' W 093°44'0 0.0
2018-Jun-10 18:30N 29°41' W 093°44'0 0.0
2018-Jun-10 18:01N 29°41' W 093°44'0 0.0
2018-Jun-10 17:30N 29°41' W 093°44'0 0.0
2018-Jun-10 17:01N 29°41' W 093°44'0 0.0
2018-Jun-10 16:30N 29°41' W 093°44'0 0.0
2018-Jun-10 16:00N 29°41' W 093°44'0 0.0
2018-Jun-10 15:29N 29°41' W 093°44'0 0.0
2018-Jun-10 14:59N 29°41' W 093°44'0 0.0
2018-Jun-10 14:30N 29°41' W 093°44'0 0.0
2018-Jun-10 13:31N 29°41' W 093°44'0 0.0
2018-Jun-10 13:01N 29°41' W 093°44'0 0.0
2018-Jun-10 12:30N 29°41' W 093°44'0 0.0
2018-Jun-10 12:00N 29°41' W 093°44'0 0.0
2018-Jun-10 11:30N 29°41' W 093°44'1 2.0
2018-Jun-10 11:00N 29°41' W 093°45'0 0.0
2018-Jun-10 10:31N 29°41' W 093°45'0 0.0
2018-Jun-10 10:00N 29°41' W 093°45'0 0.0
2018-Jun-10 09:30N 29°41' W 093°45'0 0.0
2018-Jun-10 09:01N 29°41' W 093°45'0 0.0
2018-Jun-10 08:30N 29°41' W 093°45'0 0.0
2018-Jun-10 08:00N 29°41' W 093°45'0 0.0
2018-Jun-10 07:30N 29°41' W 093°45'0 0.0
2018-Jun-10 07:01N 29°41' W 093°45'0 0.0
2018-Jun-10 06:30N 29°41' W 093°45'0 0.0
2018-Jun-10 06:00N 29°41' W 093°45'0 0.0
2018-Jun-10 05:30N 29°41' W 093°45'0 0.0
2018-Jun-10 05:00N 29°41' W 093°45'0 0.0
2018-Jun-10 04:31N 29°41' W 093°45'0 0.0
2018-Jun-10 04:00N 29°41' W 093°45'0 0.0
2018-Jun-10 03:31N 29°41' W 093°45'0 0.0
2018-Jun-10 03:00N 29°41' W 093°45'0 0.0
2018-Jun-10 02:30N 29°41' W 093°45'0 0.0
2018-Jun-10 02:01N 29°41' W 093°45'0 0.0
2018-Jun-10 01:27N 29°41' W 093°45'0 0.0
2018-Jun-10 01:00N 29°41' W 093°45'1 2.4
2018-Jun-10 00:30N 29°41' W 093°44'4 8.7
2018-Jun-10 00:00N 29°41' W 093°38'5 8.8
2018-Jun-09 23:28N 29°41' W 093°33'  
Track history (hours):
 
Tides and Currents Weather Stations Pressure Air Temp Water Temp Dewpoint Dewpoint Depression Visibility Wind Speed Wind Dir Waves Ship Positions

Brook Danos

Owner: Lafourche Tugs Inc., Raceland, LA. More information available from US FCC via Universal Licensing System and Coast Guard Vessel Documentation Center.

Last reported at 2018-Jun-19 18:30 UTC. Time now 2018-Jun-19 18:29 UTC.
Position N 29°46' W 093°53'.

Length 27 m; draft 2.6 m.

Type: Other ship. MMSI: 367081970.

Date/timePositionNaut miles runAvg speedWind from/ knotsBaromVisibWave heightAir tempDewpointWater temp
2018-Jun-19 18:30N 29°46' W 093°53'0 0.0
2018-Jun-19 18:00N 29°46' W 093°53'0 0.0
2018-Jun-19 17:30N 29°46' W 093°53'0 0.0
2018-Jun-19 17:00N 29°46' W 093°53'0 0.0
2018-Jun-19 16:30N 29°46' W 093°53'0 0.0
2018-Jun-19 16:00N 29°46' W 093°53'0 0.0
2018-Jun-19 15:30N 29°46' W 093°53'3 5.7
2018-Jun-19 15:00N 29°43' W 093°52'510.2
2018-Jun-19 14:30N 29°39' W 093°49'5 9.8
2018-Jun-19 14:00N 29°41' W 093°44'2 4.2
2018-Jun-19 13:30N 29°40' W 093°47'3 5.7
2018-Jun-19 13:00N 29°40' W 093°50'5 9.1
2018-Jun-19 12:30N 29°44' W 093°52'2 4.7
2018-Jun-19 12:00N 29°46' W 093°53'0 0.0
2018-Jun-19 11:30N 29°46' W 093°53'0 0.0
2018-Jun-19 11:00N 29°46' W 093°53'0 0.0
2018-Jun-19 10:30N 29°46' W 093°53'0 0.0
2018-Jun-19 10:00N 29°46' W 093°53'0 0.0
2018-Jun-19 09:30N 29°46' W 093°53'0 0.0
2018-Jun-19 09:00N 29°46' W 093°53'0 0.0
2018-Jun-19 08:30N 29°46' W 093°53'0 0.0
2018-Jun-19 08:00N 29°46' W 093°53'0 0.0
2018-Jun-19 07:30N 29°46' W 093°53'0 0.0
2018-Jun-19 07:00N 29°46' W 093°53'0 0.0
2018-Jun-19 06:30N 29°46' W 093°53'0 0.0
2018-Jun-19 06:00N 29°46' W 093°53'0 0.0
2018-Jun-19 05:30N 29°46' W 093°53'0 0.0
2018-Jun-19 05:00N 29°46' W 093°53'0 0.0
2018-Jun-19 04:30N 29°46' W 093°53'0 0.0
2018-Jun-19 04:00N 29°46' W 093°53'0 0.0
2018-Jun-19 03:30N 29°46' W 093°53'0 0.0
2018-Jun-19 03:00N 29°46' W 093°53'0 0.0
2018-Jun-19 02:30N 29°46' W 093°53'0 0.0
2018-Jun-19 02:00N 29°46' W 093°53'0 0.0
2018-Jun-19 01:29N 29°46' W 093°53'0 0.0
2018-Jun-19 01:00N 29°46' W 093°53'0 0.0
2018-Jun-19 00:30N 29°46' W 093°53'0 0.0
2018-Jun-19 00:00N 29°46' W 093°53'0 0.0
2018-Jun-18 23:30N 29°46' W 093°53'0 0.0
2018-Jun-18 23:01N 29°46' W 093°53'0 0.0
2018-Jun-18 22:30N 29°46' W 093°53'0 0.0
2018-Jun-18 22:00N 29°46' W 093°53'0 0.0
2018-Jun-18 21:30N 29°46' W 093°53'0 0.0
2018-Jun-18 21:00N 29°46' W 093°53'0 0.0
2018-Jun-18 20:30N 29°46' W 093°53'0 0.0
2018-Jun-18 20:00N 29°46' W 093°53'0 0.0
2018-Jun-18 19:30N 29°46' W 093°53'0 0.0
2018-Jun-18 19:01N 29°46' W 093°53'0 0.0
2018-Jun-18 18:30N 29°46' W 093°53'0 0.0
2018-Jun-18 18:00N 29°46' W 093°53'0 0.0
2018-Jun-18 17:30N 29°46' W 093°53'0 0.0
2018-Jun-18 17:00N 29°46' W 093°53'0 0.0
2018-Jun-18 16:30N 29°46' W 093°53'0 0.0
2018-Jun-18 16:01N 29°46' W 093°53'0 0.0
2018-Jun-18 15:30N 29°46' W 093°53'0 0.0
2018-Jun-18 15:00N 29°46' W 093°53'0 0.0
2018-Jun-18 14:30N 29°46' W 093°53'0 0.0
2018-Jun-18 14:00N 29°46' W 093°53'0 0.0
2018-Jun-18 13:30N 29°46' W 093°53'0 0.0
2018-Jun-18 13:00N 29°46' W 093°53'0 0.0
2018-Jun-18 12:30N 29°46' W 093°53'0 0.0
2018-Jun-18 12:00N 29°46' W 093°53'0 0.0
2018-Jun-18 11:30N 29°46' W 093°53'0 0.0
2018-Jun-18 11:00N 29°46' W 093°53'0 0.0
2018-Jun-18 10:30N 29°46' W 093°53'0 0.0
2018-Jun-18 10:01N 29°46' W 093°53'0 0.0
2018-Jun-18 09:30N 29°46' W 093°53'0 0.0
2018-Jun-18 09:00N 29°46' W 093°53'0 0.0
2018-Jun-18 08:31N 29°46' W 093°53'0 0.0
2018-Jun-18 08:00N 29°46' W 093°53'0 0.0
2018-Jun-18 07:29N 29°46' W 093°53'0 0.0
2018-Jun-18 07:00N 29°46' W 093°53'0 0.0
2018-Jun-18 06:30N 29°46' W 093°53'0 0.0
2018-Jun-18 06:01N 29°46' W 093°53'0 0.0
2018-Jun-18 05:30N 29°46' W 093°53'0 0.0
2018-Jun-18 05:00N 29°46' W 093°53'0 0.0
2018-Jun-18 04:30N 29°46' W 093°53'0 0.0
2018-Jun-18 04:00N 29°46' W 093°53'0 0.0
2018-Jun-18 03:30N 29°46' W 093°53'0 0.0
2018-Jun-18 03:00N 29°46' W 093°53'0 0.0
2018-Jun-18 02:30N 29°46' W 093°53'0 0.0
2018-Jun-18 02:00N 29°46' W 093°53'0 0.0
2018-Jun-18 01:30N 29°46' W 093°53'0 0.0
2018-Jun-18 01:00N 29°46' W 093°53'0 0.0
2018-Jun-18 00:30N 29°46' W 093°53'0 0.0
2018-Jun-18 00:00N 29°46' W 093°53'0 0.0
2018-Jun-17 23:30N 29°46' W 093°53'0 0.0
2018-Jun-17 23:00N 29°46' W 093°53'0 0.0
2018-Jun-17 22:30N 29°46' W 093°53'0 0.0
2018-Jun-17 22:00N 29°46' W 093°53'0 0.0
2018-Jun-17 21:30N 29°46' W 093°53'0 0.0
2018-Jun-17 21:00N 29°46' W 093°53'0 0.0
2018-Jun-17 20:29N 29°46' W 093°53'0 0.0
2018-Jun-17 20:00N 29°46' W 093°53'0 0.0
2018-Jun-17 19:30N 29°46' W 093°53'0 0.0
2018-Jun-17 19:00N 29°46' W 093°53'0 0.0
2018-Jun-17 18:30N 29°46' W 093°53'0 0.0
2018-Jun-17 18:00N 29°46' W 093°53'0 0.0
2018-Jun-17 17:30N 29°46' W 093°53'0 0.0
2018-Jun-17 17:00N 29°46' W 093°53'0 0.0
2018-Jun-17 16:30N 29°46' W 093°53'0 0.0
2018-Jun-17 16:00N 29°46' W 093°53'0 0.0
2018-Jun-17 15:30N 29°46' W 093°53'0 0.0
2018-Jun-17 15:00N 29°46' W 093°53'0 0.0
2018-Jun-17 14:30N 29°46' W 093°53'0 0.0
2018-Jun-17 14:00N 29°46' W 093°53'0 0.0
2018-Jun-17 13:30N 29°46' W 093°53'0 0.0
2018-Jun-17 13:00N 29°46' W 093°53'0 0.0
2018-Jun-17 12:30N 29°46' W 093°53'0 0.0
2018-Jun-17 12:00N 29°46' W 093°53'0 0.0
2018-Jun-17 11:30N 29°46' W 093°53'0 0.0
2018-Jun-17 10:58N 29°46' W 093°53'0 0.0
2018-Jun-17 10:30N 29°46' W 093°53'0 0.0
2018-Jun-17 10:00N 29°46' W 093°53'0 0.0
2018-Jun-17 09:30N 29°46' W 093°53'0 0.0
2018-Jun-17 09:00N 29°46' W 093°53'0 0.0
2018-Jun-17 08:30N 29°46' W 093°53'0 0.0
2018-Jun-17 08:00N 29°46' W 093°53'0 0.0
2018-Jun-17 07:30N 29°46' W 093°53'0 0.0
2018-Jun-17 07:00N 29°46' W 093°53'0 0.0
2018-Jun-17 06:30N 29°46' W 093°53'0 0.0
2018-Jun-17 06:00N 29°46' W 093°53'0 0.0
2018-Jun-17 05:30N 29°46' W 093°53'0 0.0
2018-Jun-17 05:00N 29°46' W 093°53'0 0.0
2018-Jun-17 04:29N 29°46' W 093°53'0 0.0
2018-Jun-17 04:00N 29°46' W 093°53'0 0.0
2018-Jun-17 03:30N 29°46' W 093°53'0 0.0
2018-Jun-17 03:00N 29°46' W 093°53'0 0.0
2018-Jun-17 02:30N 29°46' W 093°53'0 0.0
2018-Jun-17 02:00N 29°46' W 093°53'0 0.0
2018-Jun-17 01:30N 29°46' W 093°53'0 0.0
2018-Jun-17 01:00N 29°46' W 093°53'0 0.0
2018-Jun-17 00:30N 29°46' W 093°53'0 0.0
2018-Jun-17 00:00N 29°46' W 093°53'3 5.8
2018-Jun-16 23:30N 29°43' W 093°52'5 9.8
2018-Jun-16 23:00N 29°39' W 093°50'4 8.9
2018-Jun-16 22:30N 29°41' W 093°45'1 2.1
2018-Jun-16 22:00N 29°41' W 093°44'0 0.0
2018-Jun-16 21:30N 29°41' W 093°44'0 0.0
2018-Jun-16 20:59N 29°41' W 093°44'0 0.0
2018-Jun-16 20:30N 29°41' W 093°44'0 0.0
2018-Jun-16 20:00N 29°41' W 093°44'0 0.0
2018-Jun-16 19:30N 29°41' W 093°44'0 0.0
2018-Jun-16 19:00N 29°41' W 093°44'0 0.0
2018-Jun-16 18:30N 29°41' W 093°44'0 0.0
2018-Jun-16 18:00N 29°41' W 093°44'0 0.0
2018-Jun-16 17:30N 29°41' W 093°44'4 8.3
2018-Jun-16 17:00N 29°41' W 093°39'5 9.3
2018-Jun-16 16:30N 29°42' W 093°34'2 0.6
2018-Jun-16 12:15N 29°41' W 093°31'2 8.9
2018-Jun-16 12:00N 29°41' W 093°34'4 8.9
2018-Jun-16 11:30N 29°41' W 093°39'4 8.8
2018-Jun-16 11:00N 29°41' W 093°44'4 8.7
2018-Jun-16 10:30N 29°39' W 093°48'3 6.1
2018-Jun-16 10:00N 29°41' W 093°50'4 7.9
2018-Jun-16 09:30N 29°45' W 093°53'1 2.2
2018-Jun-16 09:00N 29°46' W 093°53'0 0.0
2018-Jun-16 08:30N 29°46' W 093°53'0 0.0
2018-Jun-16 08:00N 29°46' W 093°53'0 0.0
2018-Jun-16 07:30N 29°46' W 093°53'0 0.0
2018-Jun-16 07:00N 29°46' W 093°53'0 0.0
2018-Jun-16 06:30N 29°46' W 093°53'0 0.0
2018-Jun-16 06:00N 29°46' W 093°53'0 0.0
2018-Jun-16 05:30N 29°46' W 093°53'0 0.0
2018-Jun-16 05:00N 29°46' W 093°53'0 0.0
2018-Jun-16 04:31N 29°46' W 093°53'0 0.0
2018-Jun-16 04:00N 29°46' W 093°53'0 0.0
2018-Jun-16 03:30N 29°46' W 093°53'0 0.0
2018-Jun-16 03:00N 29°46' W 093°53'0 0.0
2018-Jun-16 02:31N 29°46' W 093°53'0 0.0
2018-Jun-16 02:00N 29°46' W 093°53'0 0.0
2018-Jun-16 01:30N 29°46' W 093°53'0 0.0
2018-Jun-16 01:00N 29°46' W 093°53'0 0.0
2018-Jun-16 00:30N 29°46' W 093°53'0 0.0
2018-Jun-15 23:59N 29°46' W 093°53'0 0.0
2018-Jun-15 23:30N 29°46' W 093°53'0 0.0
2018-Jun-15 23:00N 29°46' W 093°53'0 0.2
2018-Jun-15 22:30N 29°46' W 093°53'4 8.9
2018-Jun-15 22:00N 29°42' W 093°51'4 7.5
2018-Jun-15 21:30N 29°39' W 093°48'4 8.7
2018-Jun-15 21:00N 29°41' W 093°44'3 6.5
2018-Jun-15 20:30N 29°39' W 093°41'1 1.0
2018-Jun-15 19:50N 29°39' W 093°42'3 8.7
2018-Jun-15 19:30N 29°40' W 093°45'1 2.8
2018-Jun-15 19:00N 29°41' W 093°44'0 0.7
2018-Jun-15 18:30N 29°41' W 093°44'4 8.9
2018-Jun-15 18:00N 29°39' W 093°49'4 7.2
2018-Jun-15 17:30N 29°42' W 093°51'4 8.2
2018-Jun-15 17:00N 29°45' W 093°53'1 1.3
2018-Jun-15 16:30N 29°46' W 093°53'0 0.0
2018-Jun-15 16:00N 29°46' W 093°53'0 0.2
2018-Jun-15 15:30N 29°46' W 093°53'4 8.4
2018-Jun-15 15:00N 29°42' W 093°51'5 9.6
2018-Jun-15 14:30N 29°37' W 093°50'5 9.1
2018-Jun-15 14:00N 29°33' W 093°51'8 9.2
2018-Jun-15 13:11N 29°26' W 093°54'1 0.1
2018-Jun-14 14:51N 29°27' W 093°53'4 9.1
2018-Jun-14 14:28N 29°30' W 093°52'4 9.2
2018-Jun-14 14:00N 29°34' W 093°50'5 9.1
2018-Jun-14 13:30N 29°39' W 093°50'4 7.7
2018-Jun-14 13:00N 29°42' W 093°51'4 7.2
2018-Jun-14 12:30N 29°45' W 093°53'1 1.1
2018-Jun-14 12:01N 29°46' W 093°53'0 0.0
2018-Jun-14 11:30N 29°46' W 093°53'0 0.0
2018-Jun-14 11:00N 29°46' W 093°53'0 0.0
2018-Jun-14 10:30N 29°46' W 093°53'3 6.2
2018-Jun-14 10:00N 29°43' W 093°52'510.6
2018-Jun-14 09:30N 29°38' W 093°50'4 8.9
2018-Jun-14 09:00N 29°34' W 093°51'7 0.3
2018-Jun-13 06:32N 29°27' W 093°53'1 8.0
2018-Jun-13 06:27N 29°27' W 093°53'4 8.1
2018-Jun-13 06:00N 29°31' W 093°52'4 8.1
2018-Jun-13 05:30N 29°35' W 093°51'4 8.9
2018-Jun-13 05:00N 29°39' W 093°50'5 9.7
2018-Jun-13 04:29N 29°44' W 093°52'3 5.0
2018-Jun-13 03:59N 29°46' W 093°53'0 0.0
2018-Jun-13 03:30N 29°46' W 093°53'0 0.0
2018-Jun-13 03:00N 29°46' W 093°53'2 4.2
2018-Jun-13 02:30N 29°44' W 093°52'3 5.7
2018-Jun-13 02:00N 29°42' W 093°50'3 5.9
2018-Jun-13 01:30N 29°39' W 093°50'4 7.3
2018-Jun-13 01:00N 29°35' W 093°48'3 6.2
2018-Jun-13 00:30N 29°32' W 093°47'4 8.6
2018-Jun-12 23:59N 29°36' W 093°46'4 8.6
2018-Jun-12 23:30N 29°40' W 093°44'2 4.5
2018-Jun-12 23:00N 29°40' W 093°47'3 5.5
2018-Jun-12 22:30N 29°40' W 093°50'4 9.0
2018-Jun-12 22:00N 29°44' W 093°52'2 3.4
2018-Jun-12 21:30N 29°46' W 093°53'0 0.0
2018-Jun-12 21:00N 29°46' W 093°53'0 0.0
2018-Jun-12 20:30N 29°46' W 093°53'0 0.0
2018-Jun-12 20:00N 29°46' W 093°53'0 0.0
2018-Jun-12 19:30N 29°46' W 093°53'0 0.0
2018-Jun-12 19:00N 29°46' W 093°53'0 0.0
2018-Jun-12 18:30N 29°46' W 093°53'0 0.0
2018-Jun-12 18:00N 29°46' W 093°53'0 0.0
2018-Jun-12 17:30N 29°46' W 093°53'2 4.9
2018-Jun-12 17:00N 29°44' W 093°52'4 8.3
2018-Jun-12 16:30N 29°40' W 093°50'3 5.8
2018-Jun-12 16:00N 29°40' W 093°46'3 5.3
2018-Jun-12 15:30N 29°41' W 093°44'4 7.6
2018-Jun-12 15:00N 29°39' W 093°48'3 5.7
2018-Jun-12 14:30N 29°41' W 093°50'4 8.6
2018-Jun-12 14:00N 29°45' W 093°53'1 2.4
2018-Jun-12 13:30N 29°46' W 093°53'0 0.0
2018-Jun-12 13:00N 29°46' W 093°53'2 3.1
2018-Jun-12 12:30N 29°44' W 093°53'5 9.9
2018-Jun-12 12:00N 29°40' W 093°50'3 6.3
2018-Jun-12 11:30N 29°40' W 093°46'3 5.0
2018-Jun-12 11:00N 29°41' W 093°44'0 0.0
2018-Jun-12 10:30N 29°41' W 093°44'0 0.0
2018-Jun-12 10:00N 29°41' W 093°44'0 0.0
2018-Jun-12 09:30N 29°41' W 093°44'0 0.0
2018-Jun-12 09:01N 29°41' W 093°44'0 0.0
2018-Jun-12 08:30N 29°41' W 093°44'0 0.0
2018-Jun-12 08:00N 29°41' W 093°44'0 0.0
2018-Jun-12 07:30N 29°41' W 093°44'0 0.0
2018-Jun-12 07:00N 29°41' W 093°44'0 0.0
2018-Jun-12 06:30N 29°41' W 093°44'0 0.0
2018-Jun-12 06:00N 29°41' W 093°44'0 0.0
2018-Jun-12 05:30N 29°41' W 093°44'0 0.0
2018-Jun-12 05:00N 29°41' W 093°44'0 0.0
2018-Jun-12 04:30N 29°41' W 093°44'0 0.0
2018-Jun-12 04:00N 29°41' W 093°44'0 0.0
2018-Jun-12 03:30N 29°41' W 093°44'0 0.0
2018-Jun-12 03:00N 29°41' W 093°44'0 0.0
2018-Jun-12 02:30N 29°41' W 093°44'0 0.0
2018-Jun-12 02:00N 29°41' W 093°44'0 0.0
2018-Jun-12 01:30N 29°41' W 093°44'0 0.0
2018-Jun-12 00:58N 29°41' W 093°44'0 0.0
2018-Jun-12 00:29N 29°41' W 093°44'0 0.0
2018-Jun-11 23:59N 29°41' W 093°44'0 0.0
2018-Jun-11 23:29N 29°41' W 093°44'0 0.0
2018-Jun-11 22:58N 29°41' W 093°44'0 0.0
2018-Jun-11 22:29N 29°41' W 093°44'0 0.0
2018-Jun-11 22:00N 29°41' W 093°44'0 0.0
2018-Jun-11 21:28N 29°41' W 093°44'0 0.0
2018-Jun-11 21:00N 29°41' W 093°44'0 0.0
2018-Jun-11 20:29N 29°41' W 093°44'0 0.0
2018-Jun-11 19:59N 29°41' W 093°44'0 0.0
2018-Jun-11 19:27N 29°41' W 093°44'0 0.0
2018-Jun-11 18:59N 29°41' W 093°44'0 0.0
2018-Jun-11 18:30N 29°41' W 093°44'0 0.0
2018-Jun-11 17:59N 29°41' W 093°44'0 0.0
2018-Jun-11 17:30N 29°41' W 093°44'0 0.0
2018-Jun-11 17:00N 29°41' W 093°44'0 0.0
2018-Jun-11 16:29N 29°41' W 093°44'0 0.0
2018-Jun-11 15:57N 29°41' W 093°44'0 0.0
2018-Jun-11 15:30N 29°41' W 093°44'0 0.0
2018-Jun-11 15:00N 29°41' W 093°44'0 0.0
2018-Jun-11 14:30N 29°41' W 093°44'0 0.0
2018-Jun-11 13:57N 29°41' W 093°44'0 0.0
2018-Jun-11 13:30N 29°41' W 093°44'0 0.0
2018-Jun-11 13:00N 29°41' W 093°44'0 0.0
2018-Jun-11 12:30N 29°41' W 093°44'0 0.0
2018-Jun-11 12:00N 29°41' W 093°44'0 0.0
2018-Jun-11 11:29N 29°41' W 093°44'0 0.0
2018-Jun-11 11:00N 29°41' W 093°44'3 6.7
2018-Jun-11 10:30N 29°40' W 093°47'3 5.1
2018-Jun-11 10:00N 29°40' W 093°50'4 7.4
2018-Jun-11 09:30N 29°44' W 093°52'2 4.6
2018-Jun-11 09:00N 29°46' W 093°53'0 0.0
2018-Jun-11 08:30N 29°46' W 093°53'0 0.0
2018-Jun-11 08:00N 29°46' W 093°53'0 0.0
2018-Jun-11 07:29N 29°46' W 093°53'0 0.0
2018-Jun-11 07:00N 29°46' W 093°53'0 0.0
2018-Jun-11 06:30N 29°46' W 093°53'0 0.0
2018-Jun-11 06:00N 29°46' W 093°53'0 0.0
2018-Jun-11 05:30N 29°46' W 093°53'0 0.0
2018-Jun-11 05:00N 29°46' W 093°53'0 0.0
2018-Jun-11 04:31N 29°46' W 093°53'0 0.0
2018-Jun-11 04:00N 29°46' W 093°53'0 0.0
2018-Jun-11 03:31N 29°46' W 093°53'0 0.0
2018-Jun-11 03:00N 29°46' W 093°53'0 0.0
2018-Jun-11 02:30N 29°46' W 093°53'0 0.0
2018-Jun-11 02:01N 29°46' W 093°53'0 0.0
2018-Jun-11 01:30N 29°46' W 093°53'0 0.0
2018-Jun-11 01:01N 29°46' W 093°53'0 0.0
2018-Jun-11 00:30N 29°46' W 093°53'0 0.0
2018-Jun-11 00:01N 29°46' W 093°53'0 0.0
2018-Jun-10 23:30N 29°46' W 093°53'0 0.0
2018-Jun-10 23:00N 29°46' W 093°53'0 0.0
2018-Jun-10 22:30N 29°46' W 093°53'0 0.0
2018-Jun-10 22:01N 29°46' W 093°53'0 0.0
2018-Jun-10 21:30N 29°46' W 093°53'0 0.8
2018-Jun-10 21:00N 29°46' W 093°53'4 8.4
2018-Jun-10 20:31N 29°42' W 093°51'4 7.7
2018-Jun-10 20:01N 29°39' W 093°49'4 8.2
2018-Jun-10 19:30N 29°41' W 093°44'1 1.6
2018-Jun-10 19:01N 29°41' W 093°44'0 0.0
2018-Jun-10 18:30N 29°41' W 093°44'0 0.0
2018-Jun-10 18:01N 29°41' W 093°44'0 0.0
2018-Jun-10 17:30N 29°41' W 093°44'0 0.0
2018-Jun-10 17:01N 29°41' W 093°44'0 0.0
2018-Jun-10 16:30N 29°41' W 093°44'0 0.0
2018-Jun-10 16:00N 29°41' W 093°44'0 0.0
2018-Jun-10 15:29N 29°41' W 093°44'0 0.0
2018-Jun-10 14:59N 29°41' W 093°44'0 0.0
2018-Jun-10 14:30N 29°41' W 093°44'0 0.0
2018-Jun-10 13:31N 29°41' W 093°44'0 0.0
2018-Jun-10 13:01N 29°41' W 093°44'0 0.0
2018-Jun-10 12:30N 29°41' W 093°44'0 0.0
2018-Jun-10 12:00N 29°41' W 093°44'0 0.0
2018-Jun-10 11:30N 29°41' W 093°44'1 2.0
2018-Jun-10 11:00N 29°41' W 093°45'0 0.0
2018-Jun-10 10:31N 29°41' W 093°45'0 0.0
2018-Jun-10 10:00N 29°41' W 093°45'0 0.0
2018-Jun-10 09:30N 29°41' W 093°45'0 0.0
2018-Jun-10 09:01N 29°41' W 093°45'0 0.0
2018-Jun-10 08:30N 29°41' W 093°45'0 0.0
2018-Jun-10 08:00N 29°41' W 093°45'0 0.0
2018-Jun-10 07:30N 29°41' W 093°45'0 0.0
2018-Jun-10 07:01N 29°41' W 093°45'0 0.0
2018-Jun-10 06:30N 29°41' W 093°45'0 0.0
2018-Jun-10 06:00N 29°41' W 093°45'0 0.0
2018-Jun-10 05:30N 29°41' W 093°45'0 0.0
2018-Jun-10 05:00N 29°41' W 093°45'0 0.0
2018-Jun-10 04:31N 29°41' W 093°45'0 0.0
2018-Jun-10 04:00N 29°41' W 093°45'0 0.0
2018-Jun-10 03:31N 29°41' W 093°45'0 0.0
2018-Jun-10 03:00N 29°41' W 093°45'0 0.0
2018-Jun-10 02:30N 29°41' W 093°45'0 0.0
2018-Jun-10 02:01N 29°41' W 093°45'0 0.0
2018-Jun-10 01:27N 29°41' W 093°45'0 0.0
2018-Jun-10 01:00N 29°41' W 093°45'1 2.4
2018-Jun-10 00:30N 29°41' W 093°44'4 8.7
2018-Jun-10 00:00N 29°41' W 093°38'5 8.8
2018-Jun-09 23:28N 29°41' W 093°33'  

Dump ship's entire track history